KDAG/DAG METAR and TAF weather

Enter ICAO airport designator
Station Type Date Time Source
KDAG METAR 2023/02/01 11:50 UTC NOAA

KDAG 011150Z AUTO 28007KT 10SM CLR M02/M13 A3020 RMK AO2 SLP228 T10171133 10044 21022 58001


Station Type Date Time Source
KDAG Decoded METAR 2023/02/01 11:50 UTC NOAA

BARSTOW-DAGGETT AIRPORT, CA, United States (KDAG) 34-51N 116-47W 587M
Feb 01, 2023 - 06:50 AM EST / 2023.02.01 1150 UTC
Wind: from the W (280 degrees) at 8 MPH (7 KT):0
Visibility: 10 mile(s):0
Sky conditions: clear
Temperature: 28.9 F (-1.7 C)
Windchill: 21 F (-6 C):1
Dew Point: 8.1 F (-13.3 C)
Relative Humidity: 40%
Pressure (altimeter): 30.2 in. Hg (1022 hPa)
Pressure tendency: 0.00 inches (0.1 hPa) lower than three hours ago
ob: KDAG 011150Z AUTO 28007KT 10SM CLR M02/M13 A3020 RMK AO2 SLP228 T10171133 10044 21022 58001
cycle: 12

Station Type Date Time Source
KDAG TAF 2023/02/01 12:22 UTC NOAA

TAF KDAG 011120Z 0112/0212 VRB06KT P6SM SKC

Example: see airport list